Map

Track Data

SID SEASON NUMBER BASIN SUBBASIN NAME ISO_TIME NATURE LAT LON WMO_WIND WMO_PRES WMO_AGENCY TRACK_TYPE DIST2LAND LANDFALL IFLAG USA_AGENCY USA_ATCF_ID USA_LAT USA_LON USA_RECORD USA_STATUS USA_WIND USA_PRES USA_SSHS USA_R34_NE USA_R34_SE USA_R34_SW USA_R34_NW USA_R50_NE USA_R50_SE USA_R50_SW USA_R50_NW USA_R64_NE USA_R64_SE USA_R64_SW USA_R64_NW USA_POCI USA_ROCI USA_RMW USA_EYE TOKYO_LAT TOKYO_LON TOKYO_GRADE TOKYO_WIND TOKYO_PRES TOKYO_R50_DIR TOKYO_R50_LONG TOKYO_R50_SHORT TOKYO_R30_DIR TOKYO_R30_LONG TOKYO_R30_SHORT TOKYO_LAND CMA_LAT CMA_LON CMA_CAT CMA_WIND CMA_PRES HKO_LAT HKO_LON HKO_CAT HKO_WIND HKO_PRES NEWDELHI_LAT NEWDELHI_LON NEWDELHI_GRADE NEWDELHI_WIND NEWDELHI_PRES NEWDELHI_CI NEWDELHI_DP NEWDELHI_POCI REUNION_LAT REUNION_LON REUNION_TYPE REUNION_WIND REUNION_PRES REUNION_TNUM REUNION_CI REUNION_RMW REUNION_R34_NE REUNION_R34_SE REUNION_R34_SW REUNION_R34_NW REUNION_R50_NE REUNION_R50_SE REUNION_R50_SW REUNION_R50_NW REUNION_R64_NE REUNION_R64_SE REUNION_R64_SW REUNION_R64_NW BOM_LAT BOM_LON BOM_TYPE BOM_WIND BOM_PRES BOM_TNUM BOM_CI BOM_RMW BOM_R34_NE BOM_R34_SE BOM_R34_SW BOM_R34_NW BOM_R50_NE BOM_R50_SE BOM_R50_SW BOM_R50_NW BOM_R64_NE BOM_R64_SE BOM_R64_SW BOM_R64_NW BOM_ROCI BOM_POCI BOM_EYE BOM_POS_METHOD BOM_PRES_METHOD NADI_LAT NADI_LON NADI_CAT NADI_WIND NADI_PRES WELLINGTON_LAT WELLINGTON_LON WELLINGTON_WIND WELLINGTON_PRES DS824_LAT DS824_LON DS824_STAGE DS824_WIND DS824_PRES TD9636_LAT TD9636_LON TD9636_STAGE TD9636_WIND TD9636_PRES TD9635_LAT TD9635_LON TD9635_WIND TD9635_PRES TD9635_ROCI NEUMANN_LAT NEUMANN_LON NEUMANN_CLASS NEUMANN_WIND NEUMANN_PRES MLC_LAT MLC_LON MLC_CLASS MLC_WIND MLC_PRES USA_GUST BOM_GUST BOM_GUST_PER REUNION_GUST REUNION_GUST_PER USA_SEAHGT USA_SEARAD_NE USA_SEARAD_SE USA_SEARAD_SW USA_SEARAD_NW STORM_SPEED STORM_DIR
1900162N19088 1900 8 NI BB NOT_NAMED 1900-06-11 00:00:00 TS 19.1000 88.3000 main 214 191 _________O____ -1 19.1000 88.3000 TC 34 4 289
1900162N19088 1900 8 NI BB NOT_NAMED 1900-06-11 03:00:00 TS 19.1667 88.1000 main 191 160 _________PO___ -1 19.2001 88.0001 TC 36 19.1000 88.3000 2 5 289
1900162N19088 1900 8 NI BB NOT_NAMED 1900-06-11 06:00:00 TS 19.2602 87.8152 main 160 130 _________OP___ -1 19.3000 87.7000 TC 39 19.2005 87.9879 2 6 289
1900162N19088 1900 8 NI BB NOT_NAMED 1900-06-11 09:00:00 TS 19.3574 87.5202 main 130 115 _________PP___ -1 19.4000 87.4000 TC 42 19.3006 87.6805 2 6 289
1900162N19088 1900 8 NI BB NOT_NAMED 1900-06-11 12:00:00 TS 19.4502 87.2414 main 100 84 _________OP___ -1 19.5000 87.1000 TC 45 19.4004 87.3829 2 6 289
1900162N19088 1900 8 NI BB NOT_NAMED 1900-06-11 15:00:00 TS 19.5462 86.9462 main 76 54 _________PO___ -1 19.5925 86.7924 TC 41 19.5000 87.1000 3 6 290
1900162N19088 1900 8 NI BB NOT_NAMED 1900-06-11 18:00:00 TS 19.6506 86.6668 main 45 22 _________OP___ -1 19.7000 86.5000 TC 37 19.6012 86.8336 3 5 295
1900162N19088 1900 8 NI BB NOT_NAMED 1900-06-11 21:00:00 TS 19.7734 86.4183 main 22 10 _________PP___ -1 19.8348 86.2649 TC 33 19.7120 86.5718 3 6 299
1900162N19088 1900 8 NI BB NOT_NAMED 1900-06-12 00:00:00 TS 19.9209 86.1496 main 0 0 _________OP___ -1 20.0000 86.0000 TC 30 19.8418 86.2991 3 7 299
1900162N19088 1900 8 NI BB NOT_NAMED 1900-06-12 03:00:00 TS 20.0925 85.8075 main 0 0 _________PO___ -1 20.1851 85.6150 TC 30 20.0000 86.0000 1 8 298
1900162N19088 1900 8 NI BB NOT_NAMED 1900-06-12 06:00:00 TS 20.2943 85.4068 main 0 0 _________OP___ -1 20.4000 85.2000 TC 30 20.1887 85.6136 1 9 300
1900162N19088 1900 8 NI BB NOT_NAMED 1900-06-12 09:00:00 TS 20.5241 85.0129 main 0 0 _________PP___ -1 20.6425 84.8200 TC 30 20.4058 85.2057 1 8 304
1900162N19088 1900 8 NI BB NOT_NAMED 1900-06-12 12:00:00 TS 20.7725 84.6599 main 0 0 _________OP___ -1 20.9000 84.5000 TC 30 20.6449 84.8199 1 8 310
1900162N19088 1900 8 NI BB NOT_NAMED 1900-06-12 15:00:00 TS 21.0212 84.3775 main 0 0 _________PO___ -1 21.1424 84.2549 TC 30 20.9000 84.5000 1 7 318
1900162N19088 1900 8 NI BB NOT_NAMED 1900-06-12 18:00:00 TS 21.2780 84.1732 main 0 0 _________OP___ -1 21.4000 84.1000 TC 30 21.1561 84.2464 1 6 329
1900162N19088 1900 8 NI BB NOT_NAMED 1900-06-12 21:00:00 TS 21.5559 84.0340 main 0 0 _________PP___ -1 21.6849 83.9976 TC 30 21.4268 84.0705 1 6 344
1900162N19088 1900 8 NI BB NOT_NAMED 1900-06-13 00:00:00 TS 21.8546 83.9921 main 0 0 _________OP___ -1 22.0000 84.0000 TC 30 21.7092 83.9842 1 6 2
1900162N19088 1900 8 NI BB NOT_NAMED 1900-06-13 03:00:00 TS 22.1787 84.0487 main 0 0 _________PO___ -1 22.3574 84.0974 TC 30 22.0000 84.0000 1 7 17
1900162N19088 1900 8 NI BB NOT_NAMED 1900-06-13 06:00:00 TS 22.5045 84.2037 main 0 0 _________OP___ -1 22.7000 84.3000 TC 30 22.3090 84.1074 1 7 31
1900162N19088 1900 8 NI BB NOT_NAMED 1900-06-13 09:00:00 TS 22.7975 84.4458 main 0 0 _________PP___ -1 22.9725 84.5775 TC 30 22.6225 84.3141 1 8 42
1900162N19088 1900 8 NI BB NOT_NAMED 1900-06-13 12:00:00 TS 23.0623 84.7444 main 0 0 _________OP___ -1 23.2000 84.9000 TC 30 22.9246 84.5888 1 8 48
1900162N19088 1900 8 NI BB NOT_NAMED 1900-06-13 15:00:00 TS 23.3037 85.0463 main 0 0 _________PO___ -1 23.4074 85.1927 TC 30 23.2000 84.9000 1 7 50
1900162N19088 1900 8 NI BB NOT_NAMED 1900-06-13 18:00:00 TS 23.5205 85.3482 main 0 0 _________OP___ -1 23.6000 85.5000 TC 30 23.4410 85.1964 1 7 54
1900162N19088 1900 8 NI BB NOT_NAMED 1900-06-13 21:00:00 TS 23.7338 85.6813 main 0 0 _________PP___ -1 23.8150 85.8424 TC 30 23.6525 85.5201 1 7 57
1900162N19088 1900 8 NI BB NOT_NAMED 1900-06-14 00:00:00 TS 23.9189 86.0294 main 0 0 _________OP___ -1 24.0000 86.2000 TC 30 23.8378 85.8588 1 7 63
1900162N19088 1900 8 NI BB NOT_NAMED 1900-06-14 03:00:00 TS 24.0537 86.3789 main 0 0 _________PO___ -1 24.1075 86.5577 TC 30 24.0000 86.2000 1 7 68
1900162N19088 1900 8 NI BB NOT_NAMED 1900-06-14 06:00:00 TS 24.1689 86.7027 main 0 0 _________OP___ -1 24.2000 86.9000 TC 30 24.1379 86.5055 1 6 67
1900162N19088 1900 8 NI BB NOT_NAMED 1900-06-14 09:00:00 TS 24.2995 86.9994 main 0 0 _________PP___ -1 24.3422 87.1851 TC 30 24.2567 86.8136 1 6 65
1900162N19088 1900 8 NI BB NOT_NAMED 1900-06-14 12:00:00 TS 24.4361 87.3200 main 0 0 _________OP___ -1 24.5000 87.5000 TC 30 24.3722 87.1399 1 7 67
1900162N19088 1900 8 NI BB NOT_NAMED 1900-06-14 15:00:00 TS 24.5713 87.7138 main 0 0 _________PO___ -1 24.6425 87.9276 TC 30 24.5000 87.5000 1 8 69
1900162N19088 1900 8 NI BB NOT_NAMED 1900-06-14 18:00:00 TS 24.7154 88.1172 main 0 0 _________OP___ -1 24.8000 88.4000 TC 30 24.6519 87.9052 1 8 67
1900162N19088 1900 8 NI BB NOT_NAMED 1900-06-14 21:00:00 TS 24.8905 88.5518 main 0 0 _________PP___ -1 24.9902 88.8572 TC 30 24.8241 88.3482 1 9 65
1900162N19088 1900 8 NI BB NOT_NAMED 1900-06-15 00:00:00 TS 25.0729 88.9782 main 0 0 _________OP___ -1 25.2000 89.3000 TC 30 25.0093 88.8172 1 7 65
1900162N19088 1900 8 NI BB NOT_NAMED 1900-06-15 03:00:00 NR 25.2000 89.3000 main 0 __________O___ -1 TC 25.2000 89.3000 1 6 66

About IBTrACS Database

This database is a web-friendly format of International Best Track Archive for Climate Stewardship (IBTrACS), a global best track data archive curated by NOAA dating back to 1842.

Updated: 2021-12-01